sensor_id;sensor_type;location;lat;lon;timestamp;pressure;altitude;pressure_sealevel;temperature;humidity
22964;BME280;11648;49.306;6.934;2023-02-27T00:02:26;98949.94;;;2.88;47.29
22964;BME280;11648;49.306;6.934;2023-02-27T00:04:53;98942.34;;;2.96;46.75
22964;BME280;11648;49.306;6.934;2023-02-27T00:07:23;98941.09;;;2.82;47.17
22964;BME280;11648;49.306;6.934;2023-02-27T00:09:52;98934.31;;;2.87;47.44
22964;BME280;11648;49.306;6.934;2023-02-27T00:12:18;98947.34;;;2.88;47.31
22964;BME280;11648;49.306;6.934;2023-02-27T00:14:45;98938.75;;;2.91;47.33
22964;BME280;11648;49.306;6.934;2023-02-27T00:17:12;98949.84;;;2.85;47.43
22964;BME280;11648;49.306;6.934;2023-02-27T00:19:39;98949.09;;;2.89;47.13
22964;BME280;11648;49.306;6.934;2023-02-27T00:22:05;98950.00;;;2.91;47.00
22964;BME280;11648;49.306;6.934;2023-02-27T00:24:32;98946.59;;;2.92;47.34
22964;BME280;11648;49.306;6.934;2023-02-27T00:26:59;98942.78;;;2.80;47.35
22964;BME280;11648;49.306;6.934;2023-02-27T00:29:25;98939.59;;;2.90;47.33
22964;BME280;11648;49.306;6.934;2023-02-27T00:31:52;98938.63;;;2.86;47.56
22964;BME280;11648;49.306;6.934;2023-02-27T00:34:19;98939.38;;;2.82;47.45
22964;BME280;11648;49.306;6.934;2023-02-27T00:36:45;98940.94;;;2.76;47.85
22964;BME280;11648;49.306;6.934;2023-02-27T00:39:12;98938.44;;;2.80;47.50
22964;BME280;11648;49.306;6.934;2023-02-27T00:41:41;98943.63;;;2.80;47.35
22964;BME280;11648;49.306;6.934;2023-02-27T00:44:07;98950.44;;;2.75;47.50
22964;BME280;11648;49.306;6.934;2023-02-27T00:46:34;98941.81;;;2.76;47.73
22964;BME280;11648;49.306;6.934;2023-02-27T00:49:01;98944.16;;;2.67;47.90
22964;BME280;11648;49.306;6.934;2023-02-27T00:51:28;98940.72;;;2.68;47.49
22964;BME280;11648;49.306;6.934;2023-02-27T00:53:54;98939.97;;;2.72;47.67
22964;BME280;11648;49.306;6.934;2023-02-27T00:56:21;98945.94;;;2.68;47.45
22964;BME280;11648;49.306;6.934;2023-02-27T00:58:49;98950.09;;;2.63;47.87
22964;BME280;11648;49.306;6.934;2023-02-27T01:01:15;98945.94;;;2.68;47.58
22964;BME280;11648;49.306;6.934;2023-02-27T01:03:42;98945.19;;;2.72;47.62
22964;BME280;11648;49.306;6.934;2023-02-27T01:06:09;98945.94;;;2.68;47.56
22964;BME280;11648;49.306;6.934;2023-02-27T01:08:36;98942.94;;;2.55;47.74
22964;BME280;11648;49.306;6.934;2023-02-27T01:11:04;98939.69;;;2.62;47.82
22964;BME280;11648;49.306;6.934;2023-02-27T01:13:31;98939.78;;;2.66;47.97
22964;BME280;11648;49.306;6.934;2023-02-27T01:15:58;98948.31;;;2.61;48.38
22964;BME280;11648;49.306;6.934;2023-02-27T01:18:24;98938.94;;;2.66;48.17
22964;BME280;11648;49.306;6.934;2023-02-27T01:20:54;98940.03;;;2.44;48.35
22964;BME280;11648;49.306;6.934;2023-02-27T01:23:22;98930.44;;;2.41;48.26
22964;BME280;11648;49.306;6.934;2023-02-27T01:25:48;98939.38;;;2.51;48.35
22964;BME280;11648;49.306;6.934;2023-02-27T01:28:15;98946.53;;;2.60;48.19
22964;BME280;11648;49.306;6.934;2023-02-27T01:30:43;98944.75;;;2.57;48.01
22964;BME280;11648;49.306;6.934;2023-02-27T01:33:13;98946.50;;;2.58;48.03
22964;BME280;11648;49.306;6.934;2023-02-27T01:35:39;98951.50;;;2.52;48.71
22964;BME280;11648;49.306;6.934;2023-02-27T01:38:06;98939.31;;;2.49;48.49
22964;BME280;11648;49.306;6.934;2023-02-27T01:40:38;98935.09;;;2.53;48.27
22964;BME280;11648;49.306;6.934;2023-02-27T01:43:11;98929.06;;;2.54;48.32
22964;BME280;11648;49.306;6.934;2023-02-27T01:45:41;98934.84;;;2.44;48.69
22964;BME280;11648;49.306;6.934;2023-02-27T01:48:24;98940.03;;;2.44;48.94
22964;BME280;11648;49.306;6.934;2023-02-27T01:50:58;98937.97;;;2.32;48.77
22964;BME280;11648;49.306;6.934;2023-02-27T01:53:28;98937.13;;;2.33;48.98
22964;BME280;11648;49.306;6.934;2023-02-27T01:56:15;98940.81;;;2.41;49.36
22964;BME280;11648;49.306;6.934;2023-02-27T01:58:44;98943.41;;;2.41;48.78
22964;BME280;11648;49.306;6.934;2023-02-27T02:01:11;98934.47;;;2.32;48.94
22964;BME280;11648;49.306;6.934;2023-02-27T02:06:33;98932.53;;;2.25;49.37
22964;BME280;11648;49.306;6.934;2023-02-27T02:09:00;98943.31;;;2.37;49.28
22964;BME280;11648;49.306;6.934;2023-02-27T02:11:28;98943.03;;;2.28;49.41
22964;BME280;11648;49.306;6.934;2023-02-27T02:13:58;98933.69;;;2.34;49.10
22964;BME280;11648;49.306;6.934;2023-02-27T02:16:39;98931.94;;;2.33;49.10
22964;BME280;11648;49.306;6.934;2023-02-27T02:39:26;98933.47;;;1.98;49.88
22964;BME280;11648;49.306;6.934;2023-02-27T02:42:03;98935.06;;;2.22;49.79
22964;BME280;11648;49.306;6.934;2023-02-27T02:45:16;98931.13;;;2.06;49.89
22964;BME280;11648;49.306;6.934;2023-02-27T02:50:39;98935.63;;;2.12;50.43
22964;BME280;11648;49.306;6.934;2023-02-27T02:53:17;98930.31;;;2.09;50.01
22964;BME280;11648;49.306;6.934;2023-02-27T02:55:52;98928.25;;;1.97;50.24
22964;BME280;11648;49.306;6.934;2023-02-27T02:58:27;98939.69;;;2.04;49.87
22964;BME280;11648;49.306;6.934;2023-02-27T03:01:02;98937.03;;;2.01;50.13
22964;BME280;11648;49.306;6.934;2023-02-27T03:03:57;98938.91;;;2.06;50.39
22964;BME280;11648;49.306;6.934;2023-02-27T03:06:33;98937.56;;;1.90;50.34
22964;BME280;11648;49.306;6.934;2023-02-27T03:11:50;98935.41;;;2.04;50.58
22964;BME280;11648;49.306;6.934;2023-02-27T03:14:29;98934.28;;;1.96;50.56
22964;BME280;11648;49.306;6.934;2023-02-27T03:17:01;98932.00;;;1.78;51.05
22964;BME280;11648;49.306;6.934;2023-02-27T03:19:41;98937.44;;;1.86;50.51
22964;BME280;11648;49.306;6.934;2023-02-27T03:22:25;98935.09;;;1.95;50.69
22964;BME280;11648;49.306;6.934;2023-02-27T03:24:58;98946.19;;;1.89;50.80
22964;BME280;11648;49.306;6.934;2023-02-27T03:27:31;98945.25;;;1.87;50.77
22964;BME280;11648;49.306;6.934;2023-02-27T03:30:06;98952.06;;;1.84;nan
22964;BME280;11648;49.306;6.934;2023-02-27T03:32:40;98944.16;;;1.79;51.15
22964;BME280;11648;49.306;6.934;2023-02-27T03:35:10;98946.88;;;1.84;51.04
22964;BME280;11648;49.306;6.934;2023-02-27T03:46:01;98957.81;;;1.74;51.04
22964;BME280;11648;49.306;6.934;2023-02-27T03:48:33;98963.16;;;1.78;51.13
22964;BME280;11648;49.306;6.934;2023-02-27T03:51:01;98968.97;;;1.71;51.58
22964;BME280;11648;49.306;6.934;2023-02-27T03:53:33;98957.56;;;1.66;51.31
22964;BME280;11648;49.306;6.934;2023-02-27T03:56:04;98955.81;;;1.65;51.52
22964;BME280;11648;49.306;6.934;2023-02-27T03:58:32;98966.38;;;1.71;51.16
22964;BME280;11648;49.306;6.934;2023-02-27T04:00:59;98965.56;;;1.72;51.77
22964;BME280;11648;49.306;6.934;2023-02-27T04:03:26;98970.09;;;1.53;51.38
22964;BME280;11648;49.306;6.934;2023-02-27T04:05:53;98972.25;;;1.66;51.46
22964;BME280;11648;49.306;6.934;2023-02-27T04:08:43;98968.00;;;1.68;51.53
22964;BME280;11648;49.306;6.934;2023-02-27T04:14:34;98966.41;;;1.73;51.22
22964;BME280;11648;49.306;6.934;2023-02-27T04:17:23;98972.22;;;1.64;51.36
22964;BME280;11648;49.306;6.934;2023-02-27T04:23:01;98976.75;;;1.71;51.40
22964;BME280;11648;49.306;6.934;2023-02-27T04:28:24;98980.81;;;1.63;51.51
22964;BME280;11648;49.306;6.934;2023-02-27T04:39:09;98989.50;;;1.64;51.33
22964;BME280;11648;49.306;6.934;2023-02-27T04:41:47;98990.91;;;1.54;51.39
22964;BME280;11648;49.306;6.934;2023-02-27T04:44:18;98992.03;;;1.62;51.64
22964;BME280;11648;49.306;6.934;2023-02-27T04:46:46;98991.09;;;1.60;51.08
22964;BME280;11648;49.306;6.934;2023-02-27T04:49:18;98991.09;;;1.60;51.31
22964;BME280;11648;49.306;6.934;2023-02-27T04:51:52;98991.75;;;1.55;51.28
22964;BME280;11648;49.306;6.934;2023-02-27T04:54:26;98989.13;;;1.53;51.72
22964;BME280;11648;49.306;6.934;2023-02-27T04:56:57;99003.44;;;1.67;50.88
22964;BME280;11648;49.306;6.934;2023-02-27T04:59:30;98995.13;;;1.51;51.38
22964;BME280;11648;49.306;6.934;2023-02-27T05:02:02;99003.19;;;1.60;51.44
22964;BME280;11648;49.306;6.934;2023-02-27T05:04:34;99007.75;;;1.67;51.03
22964;BME280;11648;49.306;6.934;2023-02-27T05:07:05;99002.31;;;1.59;51.00
22964;BME280;11648;49.306;6.934;2023-02-27T05:12:25;99010.09;;;1.59;51.27
22964;BME280;11648;49.306;6.934;2023-02-27T05:15:04;99015.09;;;1.53;51.28
22964;BME280;11648;49.306;6.934;2023-02-27T05:17:38;99013.41;;;1.55;51.27
22964;BME280;11648;49.306;6.934;2023-02-27T05:20:07;99010.81;;;1.55;51.43
22964;BME280;11648;49.306;6.934;2023-02-27T05:27:58;99011.06;;;1.36;51.63
22964;BME280;11648;49.306;6.934;2023-02-27T05:33:07;99016.84;;;1.54;51.24
22964;BME280;11648;49.306;6.934;2023-02-27T05:36:02;99009.56;;;1.44;51.57
22964;BME280;11648;49.306;6.934;2023-02-27T05:38:36;99008.81;;;1.46;51.63
22964;BME280;11648;49.306;6.934;2023-02-27T05:41:20;99009.63;;;1.45;51.42
22964;BME280;11648;49.306;6.934;2023-02-27T05:43:53;99001.94;;;1.48;51.43
22964;BME280;11648;49.306;6.934;2023-02-27T05:46:26;99019.91;;;1.42;51.49
22964;BME280;11648;49.306;6.934;2023-02-27T05:49:00;99007.22;;;1.52;51.19
22964;BME280;11648;49.306;6.934;2023-02-27T05:51:31;99013.16;;;1.47;51.05
22964;BME280;11648;49.306;6.934;2023-02-27T05:54:05;99011.31;;;1.43;51.15
22964;BME280;11648;49.306;6.934;2023-02-27T05:56:34;99013.16;;;1.47;51.05
22964;BME280;11648;49.306;6.934;2023-02-27T06:01:35;99015.97;;;1.54;51.01
22964;BME280;11648;49.306;6.934;2023-02-27T06:04:01;99014.41;;;1.33;51.44
22964;BME280;11648;49.306;6.934;2023-02-27T06:06:29;99013.13;;;1.46;51.10
22964;BME280;11648;49.306;6.934;2023-02-27T06:08:56;99019.13;;;1.45;51.29
22964;BME280;11648;49.306;6.934;2023-02-27T06:11:23;99027.00;;;1.48;51.56
22964;BME280;11648;49.306;6.934;2023-02-27T06:13:49;99020.91;;;1.46;51.37
22964;BME280;11648;49.306;6.934;2023-02-27T06:16:16;99022.16;;;1.32;51.73
22964;BME280;11648;49.306;6.934;2023-02-27T06:18:43;99019.81;;;1.39;51.17
22964;BME280;11648;49.306;6.934;2023-02-27T06:21:11;99024.28;;;1.43;51.16
22964;BME280;11648;49.306;6.934;2023-02-27T06:23:38;99027.72;;;1.44;51.06
22964;BME280;11648;49.306;6.934;2023-02-27T06:26:05;99038.00;;;1.41;51.52
22964;BME280;11648;49.306;6.934;2023-02-27T06:28:31;99026.09;;;1.46;51.20
22964;BME280;11648;49.306;6.934;2023-02-27T06:30:58;99031.38;;;1.49;51.38
22964;BME280;11648;49.306;6.934;2023-02-27T06:33:25;99031.28;;;1.46;51.40
22964;BME280;11648;49.306;6.934;2023-02-27T06:35:52;99034.50;;;1.39;51.66
22964;BME280;11648;49.306;6.934;2023-02-27T06:38:19;99047.19;;;1.31;51.78
22964;BME280;11648;49.306;6.934;2023-02-27T06:40:46;99056.16;;;1.41;51.47
22964;BME280;11648;49.306;6.934;2023-02-27T06:43:12;99046.84;;;1.46;51.47
22964;BME280;11648;49.306;6.934;2023-02-27T06:45:40;99062.41;;;1.46;51.21
22964;BME280;11648;49.306;6.934;2023-02-27T06:48:07;99065.16;;;1.51;50.88
22964;BME280;11648;49.306;6.934;2023-02-27T06:50:33;99060.72;;;1.48;51.25
22964;BME280;11648;49.306;6.934;2023-02-27T06:53:00;99067.00;;;1.55;51.34
22964;BME280;11648;49.306;6.934;2023-02-27T06:55:27;99070.56;;;1.57;51.24
22964;BME280;11648;49.306;6.934;2023-02-27T06:57:54;99078.69;;;1.67;51.42
22964;BME280;11648;49.306;6.934;2023-02-27T07:00:20;99076.53;;;1.54;51.13
22964;BME280;11648;49.306;6.934;2023-02-27T07:02:47;99082.97;;;1.65;51.00
22964;BME280;11648;49.306;6.934;2023-02-27T07:05:14;99084.72;;;1.66;50.85
22964;BME280;11648;49.306;6.934;2023-02-27T07:07:41;99084.41;;;1.82;50.36
22964;BME280;11648;49.306;6.934;2023-02-27T07:10:11;99098.41;;;1.87;50.75
22964;BME280;11648;49.306;6.934;2023-02-27T07:12:38;99091.28;;;2.07;50.23
22964;BME280;11648;49.306;6.934;2023-02-27T07:15:06;99097.19;;;2.03;49.85
22964;BME280;11648;49.306;6.934;2023-02-27T07:17:34;99086.47;;;2.19;49.98
22964;BME280;11648;49.306;6.934;2023-02-27T07:20:00;99090.44;;;2.35;49.44
22964;BME280;11648;49.306;6.934;2023-02-27T07:22:27;99094.06;;;2.68;48.22
22964;BME280;11648;49.306;6.934;2023-02-27T07:24:53;99086.78;;;3.16;47.51
22964;BME280;11648;49.306;6.934;2023-02-27T07:27:20;99097.53;;;3.60;46.53
22964;BME280;11648;49.306;6.934;2023-02-27T07:29:47;99083.03;;;4.38;44.51
22964;BME280;11648;49.306;6.934;2023-02-27T07:32:14;99076.78;;;5.53;42.23
22964;BME280;11648;49.306;6.934;2023-02-27T07:34:40;99071.63;;;6.59;40.58
22964;BME280;11648;49.306;6.934;2023-02-27T07:37:07;99062.66;;;7.83;38.11
22964;BME280;11648;49.306;6.934;2023-02-27T07:39:34;99059.81;;;8.60;36.07
22964;BME280;11648;49.306;6.934;2023-02-27T07:42:01;99045.31;;;9.49;34.68
22964;BME280;11648;49.306;6.934;2023-02-27T07:44:27;99032.28;;;10.55;33.36
22964;BME280;11648;49.306;6.934;2023-02-27T07:46:54;99030.31;;;11.22;31.81
22964;BME280;11648;49.306;6.934;2023-02-27T07:49:21;99023.03;;;11.66;30.70
22964;BME280;11648;49.306;6.934;2023-02-27T07:51:48;99016.38;;;10.94;31.34
22964;BME280;11648;49.306;6.934;2023-02-27T07:54:14;99026.75;;;11.35;31.07
22964;BME280;11648;49.306;6.934;2023-02-27T07:56:41;99019.75;;;11.25;30.94
22964;BME280;11648;49.306;6.934;2023-02-27T07:59:08;99005.50;;;11.64;29.80
22964;BME280;11648;49.306;6.934;2023-02-27T08:01:35;99011.72;;;12.62;29.24
22964;BME280;11648;49.306;6.934;2023-02-27T08:04:01;99012.56;;;12.65;28.72
22964;BME280;11648;49.306;6.934;2023-02-27T08:06:28;98999.47;;;13.32;27.81
22964;BME280;11648;49.306;6.934;2023-02-27T08:08:55;99004.63;;;13.42;27.38
22964;BME280;11648;49.306;6.934;2023-02-27T08:11:22;99005.50;;;13.42;27.31
22964;BME280;11648;49.306;6.934;2023-02-27T08:13:49;99003.31;;;13.71;26.93
22964;BME280;11648;49.306;6.934;2023-02-27T08:16:31;98997.72;;;13.91;26.25
22964;BME280;11648;49.306;6.934;2023-02-27T08:19:00;98997.81;;;13.22;27.04
22964;BME280;11648;49.306;6.934;2023-02-27T08:21:27;99009.19;;;13.30;26.57
22964;BME280;11648;49.306;6.934;2023-02-27T08:23:55;99000.06;;;14.11;26.14
22964;BME280;11648;49.306;6.934;2023-02-27T08:26:22;98985.22;;;14.51;25.43
22964;BME280;11648;49.306;6.934;2023-02-27T08:28:48;98991.91;;;15.16;24.81
22964;BME280;11648;49.306;6.934;2023-02-27T08:31:15;99003.88;;;14.45;25.09
22964;BME280;11648;49.306;6.934;2023-02-27T08:33:42;99002.16;;;15.33;24.59
22964;BME280;11648;49.306;6.934;2023-02-27T08:36:08;99003.75;;;15.00;24.48
22964;BME280;11648;49.306;6.934;2023-02-27T08:38:35;98998.34;;;16.23;23.39
22964;BME280;11648;49.306;6.934;2023-02-27T08:41:02;99000.41;;;16.10;23.22
22964;BME280;11648;49.306;6.934;2023-02-27T08:43:29;99005.31;;;16.62;22.69
22964;BME280;11648;49.306;6.934;2023-02-27T08:45:56;99001.41;;;17.06;22.53
22964;BME280;11648;49.306;6.934;2023-02-27T08:48:23;98997.16;;;17.61;22.20
22964;BME280;11648;49.306;6.934;2023-02-27T08:50:50;98986.41;;;18.46;21.12
22964;BME280;11648;49.306;6.934;2023-02-27T08:53:17;98986.59;;;19.62;20.05
22964;BME280;11648;49.306;6.934;2023-02-27T08:55:48;98986.81;;;19.09;20.11
22964;BME280;11648;49.306;6.934;2023-02-27T08:58:16;98997.72;;;19.51;19.97
22964;BME280;11648;49.306;6.934;2023-02-27T09:00:44;98995.41;;;20.09;19.24
22964;BME280;11648;49.306;6.934;2023-02-27T09:03:11;98984.28;;;19.06;19.65
22964;BME280;11648;49.306;6.934;2023-02-27T09:05:37;98997.19;;;19.87;19.46
22964;BME280;11648;49.306;6.934;2023-02-27T09:08:04;99001.66;;;18.14;20.45
22964;BME280;11648;49.306;6.934;2023-02-27T09:10:32;99005.22;;;19.17;19.73
22964;BME280;11648;49.306;6.934;2023-02-27T09:13:00;98997.47;;;20.24;19.08
22964;BME280;11648;49.306;6.934;2023-02-27T09:15:26;99002.09;;;19.54;19.34
22964;BME280;11648;49.306;6.934;2023-02-27T09:17:53;99011.00;;;18.80;19.50
22964;BME280;11648;49.306;6.934;2023-02-27T09:20:22;99000.53;;;19.23;19.23
22964;BME280;11648;49.306;6.934;2023-02-27T09:22:48;99003.16;;;18.23;20.43
22964;BME280;11648;49.306;6.934;2023-02-27T09:25:15;99005.88;;;19.23;19.76
22964;BME280;11648;49.306;6.934;2023-02-27T09:27:42;99009.78;;;19.85;19.35
22964;BME280;11648;49.306;6.934;2023-02-27T09:30:09;99004.13;;;20.57;18.90
22964;BME280;11648;49.306;6.934;2023-02-27T09:32:36;99003.75;;;20.45;18.72
22964;BME280;11648;49.306;6.934;2023-02-27T09:35:03;99001.50;;;21.37;17.63
22964;BME280;11648;49.306;6.934;2023-02-27T09:37:30;99010.72;;;21.68;17.85
22964;BME280;11648;49.306;6.934;2023-02-27T09:39:57;99003.22;;;21.38;17.73
22964;BME280;11648;49.306;6.934;2023-02-27T09:42:25;99015.59;;;20.39;18.79
22964;BME280;11648;49.306;6.934;2023-02-27T09:45:00;99018.94;;;21.45;17.78
22964;BME280;11648;49.306;6.934;2023-02-27T09:47:37;99017.94;;;21.85;17.51
22964;BME280;11648;49.306;6.934;2023-02-27T09:52:43;99027.19;;;20.60;18.42
22964;BME280;11648;49.306;6.934;2023-02-27T09:55:21;99028.09;;;21.01;17.73
22964;BME280;11648;49.306;6.934;2023-02-27T09:57:54;99032.44;;;21.44;17.39
22964;BME280;11648;49.306;6.934;2023-02-27T10:00:52;99014.59;;;20.42;17.75
22964;BME280;11648;49.306;6.934;2023-02-27T10:11:25;99047.66;;;20.17;18.34
22964;BME280;11648;49.306;6.934;2023-02-27T10:16:29;99025.25;;;19.53;18.42
22964;BME280;11648;49.306;6.934;2023-02-27T10:19:01;99023.66;;;18.75;18.98
22964;BME280;11648;49.306;6.934;2023-02-27T10:21:36;99033.13;;;19.56;18.29
22964;BME280;11648;49.306;6.934;2023-02-27T10:26:50;99024.06;;;20.29;17.73
22964;BME280;11648;49.306;6.934;2023-02-27T10:29:30;99025.66;;;20.75;17.30
22964;BME280;11648;49.306;6.934;2023-02-27T10:34:56;99024.19;;;21.67;17.42
22964;BME280;11648;49.306;6.934;2023-02-27T10:37:26;99028.09;;;22.88;16.10
22964;BME280;11648;49.306;6.934;2023-02-27T10:39:58;99021.03;;;24.01;15.28
22964;BME280;11648;49.306;6.934;2023-02-27T10:42:31;99020.97;;;25.09;14.42
22964;BME280;11648;49.306;6.934;2023-02-27T10:44:58;99043.44;;;23.36;15.10
22964;BME280;11648;49.306;6.934;2023-02-27T10:47:25;99034.91;;;22.59;15.22
22964;BME280;11648;49.306;6.934;2023-02-27T10:49:53;99033.50;;;22.52;16.20
22964;BME280;11648;49.306;6.934;2023-02-27T10:52:20;99039.47;;;22.57;15.90
22964;BME280;11648;49.306;6.934;2023-02-27T10:54:47;99038.44;;;22.95;15.25
22964;BME280;11648;49.306;6.934;2023-02-27T10:57:21;99037.09;;;22.51;15.77
22964;BME280;11648;49.306;6.934;2023-02-27T10:59:53;99043.34;;;22.15;16.00
22964;BME280;11648;49.306;6.934;2023-02-27T11:02:25;99034.81;;;23.64;15.42
22964;BME280;11648;49.306;6.934;2023-02-27T11:04:54;99039.88;;;23.02;15.31
22964;BME280;11648;49.306;6.934;2023-02-27T11:10:25;99039.75;;;24.35;14.34
22964;BME280;11648;49.306;6.934;2023-02-27T11:13:04;99041.13;;;23.63;14.91
22964;BME280;11648;49.306;6.934;2023-02-27T11:15:34;99040.69;;;23.37;15.01
22964;BME280;11648;49.306;6.934;2023-02-27T11:20:44;99036.72;;;23.93;14.62
22964;BME280;11648;49.306;6.934;2023-02-27T11:23:19;99038.88;;;23.38;14.96
22964;BME280;11648;49.306;6.934;2023-02-27T11:25:46;99043.84;;;23.28;15.15
22964;BME280;11648;49.306;6.934;2023-02-27T11:33:33;99031.81;;;23.02;15.88
22964;BME280;11648;49.306;6.934;2023-02-27T11:36:02;99039.22;;;22.97;16.13
22964;BME280;11648;49.306;6.934;2023-02-27T11:38:30;99039.66;;;23.23;15.64
22964;BME280;11648;49.306;6.934;2023-02-27T11:41:03;99030.97;;;24.93;14.93
22964;BME280;11648;49.306;6.934;2023-02-27T11:46:02;99028.88;;;24.21;14.76
22964;BME280;11648;49.306;6.934;2023-02-27T11:49:17;99024.06;;;23.79;15.56
22964;BME280;11648;49.306;6.934;2023-02-27T11:52:11;99028.72;;;24.85;15.00
22964;BME280;11648;49.306;6.934;2023-02-27T11:54:44;99033.94;;;23.63;15.69
22964;BME280;11648;49.306;6.934;2023-02-27T11:57:43;99043.09;;;23.09;16.00
22964;BME280;11648;49.306;6.934;2023-02-27T12:00:27;99035.53;;;23.50;15.90
22964;BME280;11648;49.306;6.934;2023-02-27T12:03:10;99031.72;;;23.54;15.79
22964;BME280;11648;49.306;6.934;2023-02-27T12:06:02;99034.66;;;22.46;16.33
22964;BME280;11648;49.306;6.934;2023-02-27T12:11:23;99039.75;;;22.34;16.38
22964;BME280;11648;49.306;6.934;2023-02-27T12:14:17;99017.19;;;22.74;16.17
22964;BME280;11648;49.306;6.934;2023-02-27T12:16:56;99024.78;;;22.83;16.29
22964;BME280;11648;49.306;6.934;2023-02-27T12:19:30;99020.81;;;22.37;16.94
22964;BME280;11648;49.306;6.934;2023-02-27T12:22:21;99016.00;;;22.79;16.37
22964;BME280;11648;49.306;6.934;2023-02-27T12:25:05;99014.41;;;21.47;17.39
22964;BME280;11648;49.306;6.934;2023-02-27T12:30:22;99014.34;;;21.67;16.90
22964;BME280;11648;49.306;6.934;2023-02-27T12:33:15;99007.47;;;19.52;19.12
22964;BME280;11648;49.306;6.934;2023-02-27T12:35:45;99028.81;;;17.99;20.30
22964;BME280;11648;49.306;6.934;2023-02-27T12:38:17;99030.50;;;16.46;22.14
22964;BME280;11648;49.306;6.934;2023-02-27T12:43:44;99032.59;;;15.58;23.41
22964;BME280;11648;49.306;6.934;2023-02-27T12:46:47;99034.97;;;14.36;24.66
22964;BME280;11648;49.306;6.934;2023-02-27T12:52:15;99052.50;;;13.19;26.16
22964;BME280;11648;49.306;6.934;2023-02-27T13:00:21;99053.06;;;11.39;28.74
22964;BME280;11648;49.306;6.934;2023-02-27T13:06:11;99038.38;;;10.73;29.50
22964;BME280;11648;49.306;6.934;2023-02-27T13:08:55;99046.31;;;10.49;29.42
22964;BME280;11648;49.306;6.934;2023-02-27T13:14:34;99063.84;;;10.05;30.58
22964;BME280;11648;49.306;6.934;2023-02-27T13:17:11;99069.94;;;9.69;30.80
22964;BME280;11648;49.306;6.934;2023-02-27T13:22:43;99065.63;;;10.15;31.47
22964;BME280;11648;49.306;6.934;2023-02-27T13:25:14;99053.34;;;10.21;31.06
22964;BME280;11648;49.306;6.934;2023-02-27T13:27:55;99061.25;;;10.17;30.71
22964;BME280;11648;49.306;6.934;2023-02-27T13:30:37;99068.28;;;10.19;31.29
22964;BME280;11648;49.306;6.934;2023-02-27T13:36:00;99050.72;;;10.15;31.55
22964;BME280;11648;49.306;6.934;2023-02-27T13:38:45;99064.72;;;9.95;31.94
22964;BME280;11648;49.306;6.934;2023-02-27T13:43:58;99063.81;;;9.92;32.30
22964;BME280;11648;49.306;6.934;2023-02-27T13:46:31;99065.63;;;10.06;32.25
22964;BME280;11648;49.306;6.934;2023-02-27T13:51:43;99058.53;;;9.68;32.60
22964;BME280;11648;49.306;6.934;2023-02-27T13:57:17;99057.66;;;9.62;33.11
22964;BME280;11648;49.306;6.934;2023-02-27T13:59:51;99055.94;;;9.76;32.39
22964;BME280;11648;49.306;6.934;2023-02-27T14:02:39;99062.94;;;9.81;32.64
22964;BME280;11648;49.306;6.934;2023-02-27T14:10:39;99067.28;;;9.55;33.73
22964;BME280;11648;49.306;6.934;2023-02-27T14:24:46;99075.81;;;9.03;33.99
22964;BME280;11648;49.306;6.934;2023-02-27T14:27:30;99072.38;;;9.16;33.57
22964;BME280;11648;49.306;6.934;2023-02-27T14:30:02;99066.97;;;8.88;33.70
22964;BME280;11648;49.306;6.934;2023-02-27T14:32:33;99059.72;;;8.48;34.51
22964;BME280;11648;49.306;6.934;2023-02-27T14:35:04;99073.63;;;8.35;35.20
22964;BME280;11648;49.306;6.934;2023-02-27T14:37:31;99072.88;;;8.51;35.51
22964;BME280;11648;49.306;6.934;2023-02-27T14:39:59;99065.16;;;8.72;35.03
22964;BME280;11648;49.306;6.934;2023-02-27T14:45:02;99089.72;;;8.86;35.09
22964;BME280;11648;49.306;6.934;2023-02-27T14:47:34;99080.97;;;8.87;34.21
22964;BME280;11648;49.306;6.934;2023-02-27T14:50:04;99085.28;;;8.75;34.76
22964;BME280;11648;49.306;6.934;2023-02-27T14:52:40;99080.91;;;8.72;34.76
22964;BME280;11648;49.306;6.934;2023-02-27T15:00:46;99079.00;;;8.50;35.28
22964;BME280;11648;49.306;6.934;2023-02-27T15:03:21;99077.31;;;8.61;35.69
22964;BME280;11648;49.306;6.934;2023-02-27T15:05:51;99087.84;;;8.67;35.41
22964;BME280;11648;49.306;6.934;2023-02-27T15:08:21;99087.97;;;8.82;35.41
22964;BME280;11648;49.306;6.934;2023-02-27T15:10:50;99086.91;;;8.55;35.90
22964;BME280;11648;49.306;6.934;2023-02-27T15:13:27;99087.81;;;8.58;35.64
22964;BME280;11648;49.306;6.934;2023-02-27T15:18:52;99070.22;;;8.48;35.91
22964;BME280;11648;49.306;6.934;2023-02-27T15:21:21;99090.44;;;8.63;35.74
22964;BME280;11648;49.306;6.934;2023-02-27T15:23:56;99094.75;;;8.50;35.40
22964;BME280;11648;49.306;6.934;2023-02-27T15:26:24;99080.63;;;8.36;35.31
22964;BME280;11648;49.306;6.934;2023-02-27T15:28:52;99087.75;;;8.52;35.40
22964;BME280;11648;49.306;6.934;2023-02-27T15:31:21;99079.81;;;8.40;35.76
22964;BME280;11648;49.306;6.934;2023-02-27T15:33:49;99087.50;;;8.25;35.41
22964;BME280;11648;49.306;6.934;2023-02-27T15:36:24;99082.22;;;8.19;35.65
22964;BME280;11648;49.306;6.934;2023-02-27T15:41:54;99089.22;;;8.23;35.71
22964;BME280;11648;49.306;6.934;2023-02-27T15:44:47;99099.44;;;7.89;35.06
22964;BME280;11648;49.306;6.934;2023-02-27T15:47:23;99107.19;;;7.83;35.28
22964;BME280;11648;49.306;6.934;2023-02-27T15:52:40;99095.56;;;7.56;36.14
22964;BME280;11648;49.306;6.934;2023-02-27T15:55:20;99095.72;;;7.71;36.05
22964;BME280;11648;49.306;6.934;2023-02-27T15:57:47;99102.75;;;7.76;36.68
22964;BME280;11648;49.306;6.934;2023-02-27T16:00:30;99103.75;;;7.86;37.02
22964;BME280;11648;49.306;6.934;2023-02-27T16:02:57;99109.84;;;7.82;36.96
22964;BME280;11648;49.306;6.934;2023-02-27T16:05:35;99107.91;;;7.69;36.90
22964;BME280;11648;49.306;6.934;2023-02-27T16:08:04;99109.63;;;7.64;37.07
22964;BME280;11648;49.306;6.934;2023-02-27T16:10:39;99115.72;;;7.63;37.10
22964;BME280;11648;49.306;6.934;2023-02-27T16:13:36;99114.72;;;7.52;37.21
22964;BME280;11648;49.306;6.934;2023-02-27T16:16:06;99122.63;;;7.53;37.22
22964;BME280;11648;49.306;6.934;2023-02-27T16:21:17;99127.66;;;7.38;37.72
22964;BME280;11648;49.306;6.934;2023-02-27T16:23:45;99130.97;;;7.22;37.75
22964;BME280;11648;49.306;6.934;2023-02-27T16:26:28;99124.72;;;7.11;37.78